Latest Coastal Weather Observations for Redcliffe

IDQ60701

Issued at 7:22 pm EST Friday 14 August 2020 (issued every 10 minutes, with the page automatically refreshed every 10 minutes)

About coastal observations | Map of coastal stations | Coastal observations for QLD | Marine services | Other Formats
Station Details ID: 040958 Name: REDCLIFFE Lat: -27.22 Lon: 153.09 Height: 12.6 m
Data from the previous 72 hours. | See also: Recent months at Redcliffe
Date/Time
EST
Wind Sea
Height
m
Swell Vis
km
Cloud Weather Temp
°C
Press
hPa
Rain since
9am
mm
Dir  Spd
kts
Gust
kts
Height
m
Period
s
Dir
14/07:00pm N 18 20 - - - - - - - 20.5 1013.6 0.0
14/06:30pm NNE 18 21 - - - - - - - 20.7 1013.3 0.0
14/06:00pm NNE 19 22 - - - - - - - 20.7 1012.9 0.0
14/05:30pm NNE 17 19 - - - - - - - 20.8 1012.8 0.0
14/05:00pm NNE 15 18 - - - - - - - 21.2 1012.9 0.0
14/04:30pm NNE 13 15 - - - - - - - 21.5 1013.0 0.0
14/04:00pm NNE 11 13 - - - - - - - 21.9 1013.1 0.0
14/03:30pm NE 8 9 - - - - - - - 21.7 1013.0 0.0
14/03:00pm NE 10 13 - - - - - - - 22.6 1013.1 0.0
14/02:30pm NNE 14 17 - - - - - - - 22.4 1012.9 0.0
14/02:00pm NNE 10 13 - - - - - - - 22.5 1013.4 0.0
14/01:30pm NE 13 15 - - - - - - - 22.3 1013.7 0.0
14/01:00pm NE 11 14 - - - - - - - 21.9 1014.0 0.0
14/12:30pm E 4 5 - - - - - - - 20.3 1014.5 0.0
14/12:00pm E 6 7 - - - - - - - 20.4 1014.7 0.0
14/11:30am E 4 5 - - - - - - - 21.1 1015.5 0.0
14/11:00am ENE 5 7 - - - - - - - 19.9 1015.8 0.0
14/10:30am NE 5 6 - - - - - - - 19.6 1016.3 0.0
14/10:00am NE 4 5 - - - - - - - 18.8 1016.6 0.0
14/09:30am SE 3 5 - - - - - - - 20.0 1016.8 0.0
14/09:00am SE 4 5 - - - - - - - 19.0 1016.9 0.0
14/08:30am CALM 0 0 - - - - - - - 17.2 1017.0 0.0
14/08:00am SSW 3 5 - - - - - - - 16.7 1017.2 0.0
14/07:30am SW 4 6 - - - - - - - 16.7 1016.9 0.0
14/07:00am S 5 7 - - - - - - - 16.5 1016.7 0.0
14/06:30am S 5 7 - - - - - - - 16.5 1016.5 0.0
14/06:00am SSE 6 7 - - - - - - - 16.5 1016.2 0.0
14/05:30am SSW 7 9 - - - - - - - 16.5 1015.9 0.0
14/05:00am S 8 10 - - - - - - - 16.8 1015.6 0.0
14/04:30am S 7 8 - - - - - - - 15.9 1015.6 0.0
14/04:00am S 4 5 - - - - - - - 15.4 1015.5 0.0
14/03:30am CALM 0 0 - - - - - - - 15.0 1015.5 0.0
14/03:00am WSW 4 5 - - - - - - - 14.4 1015.7 0.0
14/02:30am W 5 7 - - - - - - - 15.1 1015.9 0.0
14/02:00am WNW 3 4 - - - - - - - 14.9 1015.8 0.0
14/01:30am W 4 5 - - - - - - - 15.4 1015.8 0.0
14/01:00am CALM 0 0 - - - - - - - 15.5 1015.9 0.0
14/12:30am WSW 2 4 - - - - - - - 15.9 1015.9 0.0
14/12:00am CALM 0 0 - - - - - - - 16.3 1016.1 0.0
 
Date/Time
EST
Wind Sea
Height
m
Swell Vis
km
Cloud Weather Temp
°C
Press
hPa
Rain since
9am
mm
Dir  Spd
kts
Gust
kts
Height
m
Period
s
Dir
13/11:30pm NW 3 4 - - - - - - - 16.4 1016.1 0.0
13/11:00pm NW 4 5 - - - - - - - 17.2 1016.2 0.0
13/10:30pm NNW 5 7 - - - - - - - 18.1 1016.2 0.0
13/10:00pm N 8 9 - - - - - - - 18.4 1016.2 0.0
13/09:30pm NNE 9 10 - - - - - - - 19.1 1016.1 0.0
13/09:00pm NE 10 11 - - - - - - - 19.8 1015.9 0.0
13/08:30pm NNE 9 10 - - - - - - - 19.8 1015.9 0.0
13/08:00pm NE 9 10 - - - - - - - 19.9 1015.6 0.0
13/07:30pm NNE 8 10 - - - - - - - 20.0 1015.4 0.0
13/07:00pm NNE 6 7 - - - - - - - 19.6 1015.3 0.0
13/06:30pm NNE 7 9 - - - - - - - 19.6 1014.8 0.0
13/06:00pm NNE 7 9 - - - - - - - 19.7 1014.6 0.0
13/05:30pm NE 3 4 - - - - - - - 19.8 1014.1 0.0
13/05:00pm ENE 5 7 - - - - - - - 20.1 1013.9 0.0
13/04:30pm ENE 8 10 - - - - - - - 20.4 1013.6 0.0
13/04:00pm ENE 11 13 - - - - - - - 20.8 1013.3 0.0
13/03:30pm ENE 12 14 - - - - - - - 21.3 1013.3 0.0
13/03:00pm NE 13 15 - - - - - - - 21.8 1013.3 0.0
13/02:30pm NE 14 16 - - - - - - - 21.8 1013.4 0.0
13/02:00pm NE 13 15 - - - - - - - 22.1 1013.5 0.0
13/01:30pm NE 12 14 - - - - - - - 21.6 1013.9 0.0
13/01:00pm ENE 10 12 - - - - - - - 21.1 1014.3 0.0
13/12:30pm ENE 9 10 - - - - - - - 21.4 1014.8 0.0
13/12:00pm ENE 7 8 - - - - - - - 22.0 1015.4 0.0
13/11:30am ENE 7 8 - - - - - - - 21.7 1016.1 0.0
13/11:00am NE 7 8 - - - - - - - 21.1 1016.7 0.0
13/10:30am NNE 9 10 - - - - - - - 20.4 1017.3 0.0
13/10:00am N 7 9 - - - - - - - 19.8 1017.7 0.0
13/09:30am N 7 10 - - - - - - - 18.4 1018.0 0.0
13/09:00am NNW 5 8 - - - - - - - 18.0 1018.1 0.0
13/08:30am NW 5 6 - - - - - - - 17.2 1018.1 0.0
13/08:00am WNW 4 6 - - - - - - - 15.9 1018.0 0.0
13/07:30am W 5 6 - - - - - - - 14.2 1017.8 0.0
13/07:00am WNW 4 5 - - - - - - - 13.1 1017.5 0.0
13/06:30am NNW 4 6 - - - - - - - 12.8 1017.0 0.0
13/06:00am NNW 5 6 - - - - - - - 12.8 1016.7 0.0
13/05:30am NNW 4 5 - - - - - - - 12.7 1016.6 0.0
13/05:00am NNW 4 6 - - - - - - - 13.2 1016.4 0.0
13/04:30am CALM 0 0 - - - - - - - 13.8 1016.2 0.0
13/04:00am WNW 2 4 - - - - - - - 13.9 1016.2 0.0
13/03:30am NNW 5 6 - - - - - - - 14.5 1016.2 0.0
13/03:00am NNW 7 10 - - - - - - - 15.5 1016.3 0.0
13/02:30am N 9 12 - - - - - - - 15.9 1016.1 0.0
13/02:00am N 9 12 - - - - - - - 16.1 1016.1 0.0
13/01:30am N 9 11 - - - - - - - 16.0 1016.3 0.0
13/01:00am N 9 12 - - - - - - - 16.2 1016.7 0.0
13/12:30am N 9 13 - - - - - - - 16.5 1016.7 0.0
13/12:00am N 8 12 - - - - - - - 16.5 1016.9 0.0
 
Date/Time
EST
Wind Sea
Height
m
Swell Vis
km
Cloud Weather Temp
°C
Press
hPa
Rain since
9am
mm
Dir  Spd
kts
Gust
kts
Height
m
Period
s
Dir
12/11:30pm N 8 10 - - - - - - - 16.7 1017.0 0.0
12/11:00pm N 9 11 - - - - - - - 17.0 1016.9 0.0
12/10:30pm N 8 12 - - - - - - - 17.1 1017.2 0.0
12/10:00pm N 8 10 - - - - - - - 17.2 1017.4 0.0
12/09:30pm NNW 6 8 - - - - - - - 16.7 1017.5 0.0
12/09:00pm NW 4 5 - - - - - - - 16.6 1017.7 0.0
12/08:30pm NW 4 5 - - - - - - - 16.9 1017.7 0.0
12/08:00pm N 4 5 - - - - - - - 17.3 1017.3 0.0
12/07:30pm N 6 7 - - - - - - - 17.8 1017.1 0.0
12/07:00pm N 9 10 - - - - - - - 18.0 1016.5 0.0
12/06:30pm N 10 12 - - - - - - - 18.3 1016.2 0.0
12/06:00pm NNE 11 14 - - - - - - - 18.5 1015.6 0.0
12/05:30pm NNE 10 12 - - - - - - - 18.6 1016.2 0.0
12/05:00pm NNE 11 13 - - - - - - - 19.0 1016.3 0.0
12/04:30pm NNE 11 13 - - - - - - - 19.4 1016.0 0.0
12/04:00pm NNE 11 13 - - - - - - - 19.8 1015.9 0.0
12/03:30pm NE 9 11 - - - - - - - 19.9 1016.0 0.0
12/03:00pm NE 9 11 - - - - - - - 19.9 1016.0 0.0
12/02:30pm ENE 9 10 - - - - - - - 19.9 1016.3 0.0
12/02:00pm ENE 9 10 - - - - - - - 19.9 1016.6 0.0
12/01:30pm E 9 10 - - - - - - - 19.3 1016.8 0.0
12/01:00pm ESE 8 9 - - - - - - - 19.0 1017.4 0.0
12/12:30pm E 7 8 - - - - - - - 19.3 1017.9 0.0
12/12:00pm E 8 9 - - - - - - - 19.0 1018.7 0.0
12/11:30am ESE 8 9 - - - - - - - 19.6 1019.2 0.0
12/11:00am SE 6 7 - - - - - - - 19.7 1019.8 0.0
12/10:30am SSE 5 6 - - - - - - - 19.7 1020.1 0.0
12/10:00am SSE 6 7 - - - - - - - 19.6 1020.5 0.0
12/09:30am SSE 7 8 - - - - - - - 19.0 1020.7 0.0
12/09:00am SSE 6 7 - - - - - - - 18.2 1020.8 0.0
12/08:30am SW 6 8 - - - - - - - 16.9 1020.9 0.0
12/08:00am WSW 6 7 - - - - - - - 14.2 1020.6 0.0
12/07:30am WSW 7 8 - - - - - - - 13.9 1020.3 0.0
12/07:00am WSW 6 7 - - - - - - - 12.4 1019.7 0.0
12/06:30am WSW 7 8 - - - - - - - 12.1 1019.9 0.0
12/06:00am WSW 7 8 - - - - - - - 12.2 1019.4 0.0
12/05:30am SSW 4 6 - - - - - - - 11.9 1018.7 0.0
12/05:00am SSE 6 7 - - - - - - - 12.4 1018.7 0.0
12/04:30am S 5 6 - - - - - - - 13.0 1018.7 0.0
12/04:00am SSW 3 4 - - - - - - - 12.9 1018.7 0.0
12/03:30am WSW 6 7 - - - - - - - 13.2 1018.7 0.0
12/03:00am WSW 5 6 - - - - - - - 13.6 1019.1 0.0
12/02:30am WNW 3 6 - - - - - - - 13.3 1018.8 0.0
12/02:00am NW 4 5 - - - - - - - 13.1 1018.9 0.0
12/01:30am WSW 7 9 - - - - - - - 12.4 1019.1 0.0
12/01:00am WSW 7 10 - - - - - - - 12.6 1018.9 0.0
12/12:30am W 6 7 - - - - - - - 12.7 1019.2 0.0
12/12:00am WSW 7 8 - - - - - - - 12.9 1018.9 0.0
 
Date/Time
EST
Wind Sea
Height
m
Swell Vis
km
Cloud Weather Temp
°C
Press
hPa
Rain since
9am
mm
Dir  Spd
kts
Gust
kts
Height
m
Period
s
Dir
11/11:30pm WSW 6 7 - - - - - - - 12.9 1018.9 0.0
11/11:00pm WSW 5 6 - - - - - - - 13.5 1019.2 0.0
11/10:30pm S 7 8 - - - - - - - 14.2 1019.2 0.0
11/10:00pm SE 8 10 - - - - - - - 16.0 1019.3 0.0
11/09:30pm SE 8 9 - - - - - - - 16.8 1019.2 0.0
11/09:00pm SE 8 10 - - - - - - - 17.0 1019.0 0.0
11/08:30pm SE 8 10 - - - - - - - 16.9 1019.1 0.0
11/08:00pm SE 7 8 - - - - - - - 16.9 1018.9 0.0
11/07:30pm SE 6 7 - - - - - - - 16.9 1018.6 0.0

Other formats

Comma delimited format used in spreadsheet applications
http://www.bom.gov.au/fwo/IDQ60701/IDQ60701.95591.axf

JavaScript Object Notation format (JSON) in row-major order
http://www.bom.gov.au/fwo/IDQ60701/IDQ60701.95591.json

Data quality

Most of these data are generated automatically and are frequently updated. Quality checks on data are not normally performed. It is possible for incorrect values to appear. Refer to information at About Latest Weather Observations and please check the disclaimer before using these data.